sensor_id;sensor_type;location;lat;lon;timestamp;temperature;humidity
10468;DHT22;5281;48.878;9.394;2023-06-26T00:00:07;20.40;86.90
10468;DHT22;5281;48.878;9.394;2023-06-26T00:02:34;20.40;87.00
10468;DHT22;5281;48.878;9.394;2023-06-26T00:05:01;20.40;87.50
10468;DHT22;5281;48.878;9.394;2023-06-26T00:07:28;20.30;88.00
10468;DHT22;5281;48.878;9.394;2023-06-26T00:09:55;20.40;88.00
10468;DHT22;5281;48.878;9.394;2023-06-26T00:12:23;20.40;88.10
10468;DHT22;5281;48.878;9.394;2023-06-26T00:14:50;20.40;88.60
10468;DHT22;5281;48.878;9.394;2023-06-26T00:17:17;20.40;88.60
10468;DHT22;5281;48.878;9.394;2023-06-26T00:19:44;20.40;89.20
10468;DHT22;5281;48.878;9.394;2023-06-26T00:22:11;20.40;89.60
10468;DHT22;5281;48.878;9.394;2023-06-26T00:24:37;20.40;90.00
10468;DHT22;5281;48.878;9.394;2023-06-26T00:27:04;20.40;90.10
10468;DHT22;5281;48.878;9.394;2023-06-26T00:29:32;20.30;90.30
10468;DHT22;5281;48.878;9.394;2023-06-26T00:31:59;20.30;90.30
10468;DHT22;5281;48.878;9.394;2023-06-26T00:34:26;20.20;90.60
10468;DHT22;5281;48.878;9.394;2023-06-26T00:36:52;20.20;90.70
10468;DHT22;5281;48.878;9.394;2023-06-26T00:39:19;20.20;90.90
10468;DHT22;5281;48.878;9.394;2023-06-26T00:41:46;20.20;90.90
10468;DHT22;5281;48.878;9.394;2023-06-26T00:44:13;20.10;91.30
10468;DHT22;5281;48.878;9.394;2023-06-26T00:46:41;20.00;91.60
10468;DHT22;5281;48.878;9.394;2023-06-26T00:49:08;20.00;91.90
10468;DHT22;5281;48.878;9.394;2023-06-26T00:51:35;19.90;92.10
10468;DHT22;5281;48.878;9.394;2023-06-26T00:54:02;19.90;92.30
10468;DHT22;5281;48.878;9.394;2023-06-26T00:56:31;19.80;92.50
10468;DHT22;5281;48.878;9.394;2023-06-26T00:58:58;19.80;92.80
10468;DHT22;5281;48.878;9.394;2023-06-26T01:01:25;19.70;93.10
10468;DHT22;5281;48.878;9.394;2023-06-26T01:03:53;19.60;93.50
10468;DHT22;5281;48.878;9.394;2023-06-26T01:06:22;19.50;93.90
10468;DHT22;5281;48.878;9.394;2023-06-26T01:08:51;19.50;94.50
10468;DHT22;5281;48.878;9.394;2023-06-26T01:11:19;19.30;94.80
10468;DHT22;5281;48.878;9.394;2023-06-26T01:13:46;19.30;95.20
10468;DHT22;5281;48.878;9.394;2023-06-26T01:16:13;19.30;95.50
10468;DHT22;5281;48.878;9.394;2023-06-26T01:18:41;19.20;95.90
10468;DHT22;5281;48.878;9.394;2023-06-26T01:21:11;19.20;96.20
10468;DHT22;5281;48.878;9.394;2023-06-26T01:23:57;19.20;96.40
10468;DHT22;5281;48.878;9.394;2023-06-26T01:26:29;19.10;96.60
10468;DHT22;5281;48.878;9.394;2023-06-26T01:28:57;19.20;96.90
10468;DHT22;5281;48.878;9.394;2023-06-26T01:31:25;19.10;96.90
10468;DHT22;5281;48.878;9.394;2023-06-26T01:33:53;19.10;96.90
10468;DHT22;5281;48.878;9.394;2023-06-26T01:36:20;19.10;97.10
10468;DHT22;5281;48.878;9.394;2023-06-26T01:38:46;19.10;97.40
10468;DHT22;5281;48.878;9.394;2023-06-26T01:41:13;19.10;97.50
10468;DHT22;5281;48.878;9.394;2023-06-26T01:43:57;19.10;97.60
10468;DHT22;5281;48.878;9.394;2023-06-26T01:46:39;19.00;97.80
10468;DHT22;5281;48.878;9.394;2023-06-26T01:49:12;19.00;98.20
10468;DHT22;5281;48.878;9.394;2023-06-26T01:51:42;19.00;98.60
10468;DHT22;5281;48.878;9.394;2023-06-26T01:54:14;18.90;98.90
10468;DHT22;5281;48.878;9.394;2023-06-26T01:56:45;18.90;99.00
10468;DHT22;5281;48.878;9.394;2023-06-26T01:59:14;18.90;99.20
10468;DHT22;5281;48.878;9.394;2023-06-26T02:01:41;18.80;99.40
10468;DHT22;5281;48.878;9.394;2023-06-26T02:04:07;18.90;99.50
10468;DHT22;5281;48.878;9.394;2023-06-26T02:06:34;18.90;99.50
10468;DHT22;5281;48.878;9.394;2023-06-26T02:09:01;18.90;99.50
10468;DHT22;5281;48.878;9.394;2023-06-26T02:11:29;18.90;99.60
10468;DHT22;5281;48.878;9.394;2023-06-26T02:13:56;18.90;99.70
10468;DHT22;5281;48.878;9.394;2023-06-26T02:16:24;18.90;99.90
10468;DHT22;5281;48.878;9.394;2023-06-26T02:18:51;18.80;99.90
10468;DHT22;5281;48.878;9.394;2023-06-26T02:21:17;18.80;99.90
10468;DHT22;5281;48.878;9.394;2023-06-26T02:23:44;18.80;99.90
10468;DHT22;5281;48.878;9.394;2023-06-26T02:26:11;18.80;99.90
10468;DHT22;5281;48.878;9.394;2023-06-26T02:28:37;18.80;99.90
10468;DHT22;5281;48.878;9.394;2023-06-26T02:31:04;18.80;99.90
10468;DHT22;5281;48.878;9.394;2023-06-26T02:33:32;18.80;99.90
10468;DHT22;5281;48.878;9.394;2023-06-26T02:35:59;18.60;99.90
10468;DHT22;5281;48.878;9.394;2023-06-26T02:38:26;18.50;99.90
10468;DHT22;5281;48.878;9.394;2023-06-26T02:40:53;18.50;99.90
10468;DHT22;5281;48.878;9.394;2023-06-26T02:43:19;18.40;99.90
10468;DHT22;5281;48.878;9.394;2023-06-26T02:45:46;18.40;99.90
10468;DHT22;5281;48.878;9.394;2023-06-26T02:48:13;18.40;99.90
10468;DHT22;5281;48.878;9.394;2023-06-26T02:50:41;18.30;99.90
10468;DHT22;5281;48.878;9.394;2023-06-26T02:53:11;18.30;99.90
10468;DHT22;5281;48.878;9.394;2023-06-26T02:55:37;18.30;99.90
10468;DHT22;5281;48.878;9.394;2023-06-26T02:58:04;18.30;99.90
10468;DHT22;5281;48.878;9.394;2023-06-26T03:00:31;18.30;99.90
10468;DHT22;5281;48.878;9.394;2023-06-26T03:02:58;18.20;99.90
10468;DHT22;5281;48.878;9.394;2023-06-26T03:05:25;18.20;99.90
10468;DHT22;5281;48.878;9.394;2023-06-26T03:07:53;18.20;99.90
10468;DHT22;5281;48.878;9.394;2023-06-26T03:10:20;18.20;99.90
10468;DHT22;5281;48.878;9.394;2023-06-26T03:12:47;18.10;99.90
10468;DHT22;5281;48.878;9.394;2023-06-26T03:15:13;18.10;99.90
10468;DHT22;5281;48.878;9.394;2023-06-26T03:17:40;18.10;99.90
10468;DHT22;5281;48.878;9.394;2023-06-26T03:20:07;18.20;99.90
10468;DHT22;5281;48.878;9.394;2023-06-26T03:22:35;18.10;99.90
10468;DHT22;5281;48.878;9.394;2023-06-26T03:25:04;18.10;99.90
10468;DHT22;5281;48.878;9.394;2023-06-26T03:27:31;18.10;99.90
10468;DHT22;5281;48.878;9.394;2023-06-26T03:29:57;18.10;99.90
10468;DHT22;5281;48.878;9.394;2023-06-26T03:32:24;18.10;99.90
10468;DHT22;5281;48.878;9.394;2023-06-26T03:34:51;18.10;99.90
10468;DHT22;5281;48.878;9.394;2023-06-26T03:37:18;18.10;99.90
10468;DHT22;5281;48.878;9.394;2023-06-26T03:39:45;18.10;99.90
10468;DHT22;5281;48.878;9.394;2023-06-26T03:42:13;18.10;99.90
10468;DHT22;5281;48.878;9.394;2023-06-26T03:44:39;18.10;99.90
10468;DHT22;5281;48.878;9.394;2023-06-26T03:47:06;18.10;99.90
10468;DHT22;5281;48.878;9.394;2023-06-26T03:49:33;18.10;99.90
10468;DHT22;5281;48.878;9.394;2023-06-26T03:52:00;18.10;99.90
10468;DHT22;5281;48.878;9.394;2023-06-26T03:54:26;18.10;99.90
10468;DHT22;5281;48.878;9.394;2023-06-26T03:56:53;18.20;99.90
10468;DHT22;5281;48.878;9.394;2023-06-26T03:59:21;18.20;99.90
10468;DHT22;5281;48.878;9.394;2023-06-26T04:01:48;18.20;99.90
10468;DHT22;5281;48.878;9.394;2023-06-26T04:04:15;18.20;99.90
10468;DHT22;5281;48.878;9.394;2023-06-26T04:06:41;18.20;99.90
10468;DHT22;5281;48.878;9.394;2023-06-26T04:09:08;18.30;99.90
10468;DHT22;5281;48.878;9.394;2023-06-26T04:11:35;18.30;99.90
10468;DHT22;5281;48.878;9.394;2023-06-26T04:14:02;18.40;99.90
10468;DHT22;5281;48.878;9.394;2023-06-26T04:16:30;18.50;99.90
10468;DHT22;5281;48.878;9.394;2023-06-26T04:18:57;18.60;99.90
10468;DHT22;5281;48.878;9.394;2023-06-26T04:21:24;18.60;99.90
10468;DHT22;5281;48.878;9.394;2023-06-26T04:23:51;18.60;99.90
10468;DHT22;5281;48.878;9.394;2023-06-26T04:26:18;18.70;99.90
10468;DHT22;5281;48.878;9.394;2023-06-26T04:28:44;18.80;99.90
10468;DHT22;5281;48.878;9.394;2023-06-26T04:31:11;18.90;99.90
10468;DHT22;5281;48.878;9.394;2023-06-26T04:33:39;18.90;99.90
10468;DHT22;5281;48.878;9.394;2023-06-26T04:36:06;19.00;99.90
10468;DHT22;5281;48.878;9.394;2023-06-26T04:38:33;19.10;99.90
10468;DHT22;5281;48.878;9.394;2023-06-26T04:41:00;19.20;99.90
10468;DHT22;5281;48.878;9.394;2023-06-26T04:43:27;19.30;99.90
10468;DHT22;5281;48.878;9.394;2023-06-26T04:45:54;19.60;99.90
10468;DHT22;5281;48.878;9.394;2023-06-26T04:48:20;20.00;99.90
10468;DHT22;5281;48.878;9.394;2023-06-26T04:50:48;21.30;99.90
10468;DHT22;5281;48.878;9.394;2023-06-26T04:53:19;23.10;98.30
10468;DHT22;5281;48.878;9.394;2023-06-26T04:55:46;25.00;94.30
10468;DHT22;5281;48.878;9.394;2023-06-26T04:58:13;26.60;90.20
10468;DHT22;5281;48.878;9.394;2023-06-26T05:00:39;28.20;82.70
10468;DHT22;5281;48.878;9.394;2023-06-26T05:03:08;29.40;75.50
10468;DHT22;5281;48.878;9.394;2023-06-26T05:05:35;30.40;70.10
10468;DHT22;5281;48.878;9.394;2023-06-26T05:08:15;31.20;66.80
10468;DHT22;5281;48.878;9.394;2023-06-26T05:10:42;32.00;64.40
10468;DHT22;5281;48.878;9.394;2023-06-26T05:13:08;32.90;61.10
10468;DHT22;5281;48.878;9.394;2023-06-26T05:15:35;33.60;58.80
10468;DHT22;5281;48.878;9.394;2023-06-26T05:18:02;34.10;57.00
10468;DHT22;5281;48.878;9.394;2023-06-26T05:20:29;34.40;55.60
10468;DHT22;5281;48.878;9.394;2023-06-26T05:22:56;34.60;55.00
10468;DHT22;5281;48.878;9.394;2023-06-26T05:25:24;35.00;54.10
10468;DHT22;5281;48.878;9.394;2023-06-26T05:27:52;35.50;53.00
10468;DHT22;5281;48.878;9.394;2023-06-26T05:30:20;35.90;52.20
10468;DHT22;5281;48.878;9.394;2023-06-26T05:32:47;36.50;51.30
10468;DHT22;5281;48.878;9.394;2023-06-26T05:35:14;36.90;50.10
10468;DHT22;5281;48.878;9.394;2023-06-26T05:37:42;37.40;49.30
10468;DHT22;5281;48.878;9.394;2023-06-26T05:40:10;37.80;48.40
10468;DHT22;5281;48.878;9.394;2023-06-26T05:42:38;38.00;47.50
10468;DHT22;5281;48.878;9.394;2023-06-26T05:45:06;38.20;47.30
10468;DHT22;5281;48.878;9.394;2023-06-26T05:47:32;38.50;46.90
10468;DHT22;5281;48.878;9.394;2023-06-26T05:50:00;38.90;46.30
10468;DHT22;5281;48.878;9.394;2023-06-26T05:52:27;39.50;45.10
10468;DHT22;5281;48.878;9.394;2023-06-26T05:54:55;39.90;44.30
10468;DHT22;5281;48.878;9.394;2023-06-26T05:57:24;40.40;43.70
10468;DHT22;5281;48.878;9.394;2023-06-26T05:59:54;41.10;42.60
10468;DHT22;5281;48.878;9.394;2023-06-26T06:02:21;41.70;41.80
10468;DHT22;5281;48.878;9.394;2023-06-26T06:04:48;42.20;41.00
10468;DHT22;5281;48.878;9.394;2023-06-26T06:07:15;42.50;40.20
10468;DHT22;5281;48.878;9.394;2023-06-26T06:09:42;42.80;39.60
10468;DHT22;5281;48.878;9.394;2023-06-26T06:12:09;42.90;39.40
10468;DHT22;5281;48.878;9.394;2023-06-26T06:14:35;42.90;39.70
10468;DHT22;5281;48.878;9.394;2023-06-26T06:17:03;43.30;39.00
10468;DHT22;5281;48.878;9.394;2023-06-26T06:19:30;43.60;38.70
10468;DHT22;5281;48.878;9.394;2023-06-26T06:21:57;44.00;38.10
10468;DHT22;5281;48.878;9.394;2023-06-26T06:24:24;44.30;37.60
10468;DHT22;5281;48.878;9.394;2023-06-26T06:26:50;44.50;37.00
10468;DHT22;5281;48.878;9.394;2023-06-26T06:29:17;44.60;37.10
10468;DHT22;5281;48.878;9.394;2023-06-26T06:31:45;44.60;37.10
10468;DHT22;5281;48.878;9.394;2023-06-26T06:34:13;43.90;37.80
10468;DHT22;5281;48.878;9.394;2023-06-26T06:36:40;43.90;37.60
10468;DHT22;5281;48.878;9.394;2023-06-26T06:39:06;43.90;37.70
10468;DHT22;5281;48.878;9.394;2023-06-26T06:41:33;44.20;37.20
10468;DHT22;5281;48.878;9.394;2023-06-26T06:44:00;44.40;37.40
10468;DHT22;5281;48.878;9.394;2023-06-26T06:46:27;44.70;37.20
10468;DHT22;5281;48.878;9.394;2023-06-26T06:48:54;45.10;36.60
10468;DHT22;5281;48.878;9.394;2023-06-26T06:51:23;45.90;36.40
10468;DHT22;5281;48.878;9.394;2023-06-26T06:53:49;46.60;35.50
10468;DHT22;5281;48.878;9.394;2023-06-26T06:56:16;47.30;34.80
10468;DHT22;5281;48.878;9.394;2023-06-26T06:58:43;47.70;34.40
10468;DHT22;5281;48.878;9.394;2023-06-26T07:01:13;48.10;33.80
10468;DHT22;5281;48.878;9.394;2023-06-26T07:03:39;48.40;33.40
10468;DHT22;5281;48.878;9.394;2023-06-26T07:06:06;48.80;33.20
10468;DHT22;5281;48.878;9.394;2023-06-26T07:08:34;49.00;32.30
10468;DHT22;5281;48.878;9.394;2023-06-26T07:11:01;48.50;33.30
10468;DHT22;5281;48.878;9.394;2023-06-26T07:13:28;48.40;33.00
10468;DHT22;5281;48.878;9.394;2023-06-26T07:15:55;48.80;32.80
10468;DHT22;5281;48.878;9.394;2023-06-26T07:18:22;49.10;32.20
10468;DHT22;5281;48.878;9.394;2023-06-26T07:20:48;49.40;31.90
10468;DHT22;5281;48.878;9.394;2023-06-26T07:23:15;50.10;31.20
10468;DHT22;5281;48.878;9.394;2023-06-26T07:25:43;50.70;31.00
10468;DHT22;5281;48.878;9.394;2023-06-26T07:28:10;50.80;30.10
10468;DHT22;5281;48.878;9.394;2023-06-26T07:30:37;50.70;30.10
10468;DHT22;5281;48.878;9.394;2023-06-26T07:33:04;50.40;30.60
10468;DHT22;5281;48.878;9.394;2023-06-26T07:35:31;50.10;30.50
10468;DHT22;5281;48.878;9.394;2023-06-26T07:37:58;49.40;30.00
10468;DHT22;5281;48.878;9.394;2023-06-26T07:40:25;48.30;31.10
10468;DHT22;5281;48.878;9.394;2023-06-26T07:42:53;47.40;32.00
10468;DHT22;5281;48.878;9.394;2023-06-26T07:45:20;46.80;32.60
10468;DHT22;5281;48.878;9.394;2023-06-26T07:47:47;47.70;31.90
10468;DHT22;5281;48.878;9.394;2023-06-26T07:50:14;48.90;30.10
10468;DHT22;5281;48.878;9.394;2023-06-26T07:52:44;49.20;30.40
10468;DHT22;5281;48.878;9.394;2023-06-26T07:55:11;49.80;30.00
10468;DHT22;5281;48.878;9.394;2023-06-26T07:57:38;49.60;30.00
10468;DHT22;5281;48.878;9.394;2023-06-26T08:00:07;49.60;30.10
10468;DHT22;5281;48.878;9.394;2023-06-26T08:02:34;49.70;29.80
10468;DHT22;5281;48.878;9.394;2023-06-26T08:05:01;49.60;29.90
10468;DHT22;5281;48.878;9.394;2023-06-26T08:07:27;49.30;29.80
10468;DHT22;5281;48.878;9.394;2023-06-26T08:09:54;49.20;30.00
10468;DHT22;5281;48.878;9.394;2023-06-26T08:12:21;49.30;29.80
10468;DHT22;5281;48.878;9.394;2023-06-26T08:14:47;49.50;29.60
10468;DHT22;5281;48.878;9.394;2023-06-26T08:17:15;48.30;30.70
10468;DHT22;5281;48.878;9.394;2023-06-26T08:19:42;47.40;31.20
10468;DHT22;5281;48.878;9.394;2023-06-26T08:22:09;46.40;32.30
10468;DHT22;5281;48.878;9.394;2023-06-26T08:24:35;46.20;32.30
10468;DHT22;5281;48.878;9.394;2023-06-26T08:27:02;46.40;32.40
10468;DHT22;5281;48.878;9.394;2023-06-26T08:29:29;46.90;32.00
10468;DHT22;5281;48.878;9.394;2023-06-26T08:31:56;47.20;31.90
10468;DHT22;5281;48.878;9.394;2023-06-26T08:34:24;47.00;31.90
10468;DHT22;5281;48.878;9.394;2023-06-26T08:36:51;46.70;32.20
10468;DHT22;5281;48.878;9.394;2023-06-26T08:39:18;46.40;32.40
10468;DHT22;5281;48.878;9.394;2023-06-26T08:41:45;46.40;32.40
10468;DHT22;5281;48.878;9.394;2023-06-26T08:44:12;46.60;32.40
10468;DHT22;5281;48.878;9.394;2023-06-26T08:46:39;46.70;32.30
10468;DHT22;5281;48.878;9.394;2023-06-26T08:49:14;46.50;32.50
10468;DHT22;5281;48.878;9.394;2023-06-26T08:51:50;45.30;33.40
10468;DHT22;5281;48.878;9.394;2023-06-26T08:54:25;44.40;34.60
10468;DHT22;5281;48.878;9.394;2023-06-26T08:56:54;43.30;35.40
10468;DHT22;5281;48.878;9.394;2023-06-26T08:59:21;41.50;37.40
10468;DHT22;5281;48.878;9.394;2023-06-26T09:01:50;40.20;38.60
10468;DHT22;5281;48.878;9.394;2023-06-26T09:04:17;38.90;40.10
10468;DHT22;5281;48.878;9.394;2023-06-26T09:06:45;37.70;41.70
10468;DHT22;5281;48.878;9.394;2023-06-26T09:09:12;36.50;43.20
10468;DHT22;5281;48.878;9.394;2023-06-26T09:11:39;35.50;44.60
10468;DHT22;5281;48.878;9.394;2023-06-26T09:14:05;34.80;46.10
10468;DHT22;5281;48.878;9.394;2023-06-26T09:16:39;34.30;46.50
10468;DHT22;5281;48.878;9.394;2023-06-26T09:19:09;33.80;47.10
10468;DHT22;5281;48.878;9.394;2023-06-26T09:21:37;33.30;48.40
10468;DHT22;5281;48.878;9.394;2023-06-26T09:24:06;33.00;49.00
10468;DHT22;5281;48.878;9.394;2023-06-26T09:26:33;32.80;49.80
10468;DHT22;5281;48.878;9.394;2023-06-26T09:29:00;32.70;49.80
10468;DHT22;5281;48.878;9.394;2023-06-26T09:31:27;32.70;50.10
10468;DHT22;5281;48.878;9.394;2023-06-26T09:33:58;32.60;50.90
10468;DHT22;5281;48.878;9.394;2023-06-26T09:36:27;32.40;51.10
10468;DHT22;5281;48.878;9.394;2023-06-26T09:38:54;32.30;51.30
10468;DHT22;5281;48.878;9.394;2023-06-26T09:41:22;32.30;51.90
10468;DHT22;5281;48.878;9.394;2023-06-26T09:43:50;32.40;51.90
10468;DHT22;5281;48.878;9.394;2023-06-26T09:46:17;32.50;51.50
10468;DHT22;5281;48.878;9.394;2023-06-26T09:48:44;32.40;51.80
10468;DHT22;5281;48.878;9.394;2023-06-26T09:51:10;32.40;51.90
10468;DHT22;5281;48.878;9.394;2023-06-26T09:53:37;32.40;52.00
10468;DHT22;5281;48.878;9.394;2023-06-26T09:56:07;32.50;52.00
10468;DHT22;5281;48.878;9.394;2023-06-26T09:58:36;32.70;51.60
10468;DHT22;5281;48.878;9.394;2023-06-26T10:01:03;32.80;51.70
10468;DHT22;5281;48.878;9.394;2023-06-26T10:03:29;33.00;51.70
10468;DHT22;5281;48.878;9.394;2023-06-26T10:05:57;33.30;50.90
10468;DHT22;5281;48.878;9.394;2023-06-26T10:08:24;33.30;50.40
10468;DHT22;5281;48.878;9.394;2023-06-26T10:10:51;33.30;50.30
10468;DHT22;5281;48.878;9.394;2023-06-26T10:13:21;33.30;50.50
10468;DHT22;5281;48.878;9.394;2023-06-26T10:15:50;33.20;50.60
10468;DHT22;5281;48.878;9.394;2023-06-26T10:18:18;33.20;51.10
10468;DHT22;5281;48.878;9.394;2023-06-26T10:20:47;33.10;50.50
10468;DHT22;5281;48.878;9.394;2023-06-26T10:23:15;33.00;50.40
10468;DHT22;5281;48.878;9.394;2023-06-26T10:25:44;32.90;51.10
10468;DHT22;5281;48.878;9.394;2023-06-26T10:28:13;33.00;51.80
10468;DHT22;5281;48.878;9.394;2023-06-26T10:30:42;33.10;51.90
10468;DHT22;5281;48.878;9.394;2023-06-26T10:33:12;33.20;51.90
10468;DHT22;5281;48.878;9.394;2023-06-26T10:35:42;33.30;51.50
10468;DHT22;5281;48.878;9.394;2023-06-26T10:38:10;33.20;51.30
10468;DHT22;5281;48.878;9.394;2023-06-26T10:40:41;33.20;51.90
10468;DHT22;5281;48.878;9.394;2023-06-26T10:43:09;33.50;52.10
10468;DHT22;5281;48.878;9.394;2023-06-26T10:45:37;33.70;51.90
10468;DHT22;5281;48.878;9.394;2023-06-26T10:48:04;33.80;51.70
10468;DHT22;5281;48.878;9.394;2023-06-26T10:50:32;33.90;51.60
10468;DHT22;5281;48.878;9.394;2023-06-26T10:53:15;33.70;51.50
10468;DHT22;5281;48.878;9.394;2023-06-26T10:55:48;33.50;51.60
10468;DHT22;5281;48.878;9.394;2023-06-26T10:58:30;33.30;52.00
10468;DHT22;5281;48.878;9.394;2023-06-26T11:01:21;33.10;52.40
10468;DHT22;5281;48.878;9.394;2023-06-26T11:03:49;32.70;52.90
10468;DHT22;5281;48.878;9.394;2023-06-26T11:06:20;32.50;53.80
10468;DHT22;5281;48.878;9.394;2023-06-26T11:08:48;32.50;53.70
10468;DHT22;5281;48.878;9.394;2023-06-26T11:11:15;32.50;53.70
10468;DHT22;5281;48.878;9.394;2023-06-26T11:13:45;32.40;54.40
10468;DHT22;5281;48.878;9.394;2023-06-26T11:16:12;32.40;55.40
10468;DHT22;5281;48.878;9.394;2023-06-26T11:18:40;32.30;55.80
10468;DHT22;5281;48.878;9.394;2023-06-26T11:21:07;32.30;55.70
10468;DHT22;5281;48.878;9.394;2023-06-26T11:23:37;32.40;55.90
10468;DHT22;5281;48.878;9.394;2023-06-26T11:26:14;32.60;55.70
10468;DHT22;5281;48.878;9.394;2023-06-26T11:28:46;32.70;55.50
10468;DHT22;5281;48.878;9.394;2023-06-26T11:31:24;32.90;55.50
10468;DHT22;5281;48.878;9.394;2023-06-26T11:33:51;33.10;55.30
10468;DHT22;5281;48.878;9.394;2023-06-26T11:36:17;33.20;54.90
10468;DHT22;5281;48.878;9.394;2023-06-26T11:38:45;33.30;55.00
10468;DHT22;5281;48.878;9.394;2023-06-26T11:41:16;33.30;56.00
10468;DHT22;5281;48.878;9.394;2023-06-26T11:43:43;33.40;56.30
10468;DHT22;5281;48.878;9.394;2023-06-26T11:46:10;33.60;56.30
10468;DHT22;5281;48.878;9.394;2023-06-26T11:48:37;33.60;56.60
10468;DHT22;5281;48.878;9.394;2023-06-26T11:51:04;33.60;56.70
10468;DHT22;5281;48.878;9.394;2023-06-26T11:53:32;33.90;56.50
10468;DHT22;5281;48.878;9.394;2023-06-26T11:56:09;33.90;55.80
10468;DHT22;5281;48.878;9.394;2023-06-26T11:58:36;34.00;55.30
10468;DHT22;5281;48.878;9.394;2023-06-26T12:01:03;33.80;55.60
10468;DHT22;5281;48.878;9.394;2023-06-26T12:03:31;33.50;56.50
10468;DHT22;5281;48.878;9.394;2023-06-26T12:05:58;33.30;57.50
10468;DHT22;5281;48.878;9.394;2023-06-26T12:08:26;33.10;58.50
10468;DHT22;5281;48.878;9.394;2023-06-26T12:10:53;33.10;58.40
10468;DHT22;5281;48.878;9.394;2023-06-26T12:13:21;33.20;58.20
10468;DHT22;5281;48.878;9.394;2023-06-26T12:15:48;33.10;57.70
10468;DHT22;5281;48.878;9.394;2023-06-26T12:18:15;33.10;58.10
10468;DHT22;5281;48.878;9.394;2023-06-26T12:20:42;33.10;58.90
10468;DHT22;5281;48.878;9.394;2023-06-26T12:23:12;32.90;59.10
10468;DHT22;5281;48.878;9.394;2023-06-26T12:25:39;32.80;60.10
10468;DHT22;5281;48.878;9.394;2023-06-26T12:28:15;32.80;60.50
10468;DHT22;5281;48.878;9.394;2023-06-26T12:30:47;33.00;61.00
10468;DHT22;5281;48.878;9.394;2023-06-26T12:33:14;33.30;58.80
10468;DHT22;5281;48.878;9.394;2023-06-26T12:35:41;33.30;58.70
10468;DHT22;5281;48.878;9.394;2023-06-26T12:38:08;33.30;59.00
10468;DHT22;5281;48.878;9.394;2023-06-26T12:40:44;33.20;59.40
10468;DHT22;5281;48.878;9.394;2023-06-26T12:43:11;33.20;59.90
10468;DHT22;5281;48.878;9.394;2023-06-26T12:45:38;33.30;59.30
10468;DHT22;5281;48.878;9.394;2023-06-26T12:48:12;33.60;59.20
10468;DHT22;5281;48.878;9.394;2023-06-26T12:50:43;33.90;58.90
10468;DHT22;5281;48.878;9.394;2023-06-26T12:53:11;33.90;58.70
10468;DHT22;5281;48.878;9.394;2023-06-26T12:55:37;33.60;59.40
10468;DHT22;5281;48.878;9.394;2023-06-26T12:58:04;33.50;59.30
10468;DHT22;5281;48.878;9.394;2023-06-26T13:00:31;33.40;59.10
10468;DHT22;5281;48.878;9.394;2023-06-26T13:02:59;33.10;59.00
10468;DHT22;5281;48.878;9.394;2023-06-26T13:05:27;33.00;59.70
10468;DHT22;5281;48.878;9.394;2023-06-26T13:07:54;32.90;60.20
10468;DHT22;5281;48.878;9.394;2023-06-26T13:10:21;32.90;60.50
10468;DHT22;5281;48.878;9.394;2023-06-26T13:12:47;32.80;60.60
10468;DHT22;5281;48.878;9.394;2023-06-26T13:15:14;32.90;59.10
10468;DHT22;5281;48.878;9.394;2023-06-26T13:17:41;33.10;59.00
10468;DHT22;5281;48.878;9.394;2023-06-26T13:20:09;33.10;59.90
10468;DHT22;5281;48.878;9.394;2023-06-26T13:22:37;32.90;60.10
10468;DHT22;5281;48.878;9.394;2023-06-26T13:25:04;32.90;60.00
10468;DHT22;5281;48.878;9.394;2023-06-26T13:27:31;32.80;60.20
10468;DHT22;5281;48.878;9.394;2023-06-26T13:29:57;32.90;59.60
10468;DHT22;5281;48.878;9.394;2023-06-26T13:32:24;32.90;58.50
10468;DHT22;5281;48.878;9.394;2023-06-26T13:34:51;33.00;58.20
10468;DHT22;5281;48.878;9.394;2023-06-26T13:37:17;32.90;58.00
10468;DHT22;5281;48.878;9.394;2023-06-26T13:39:45;32.90;57.80
10468;DHT22;5281;48.878;9.394;2023-06-26T13:42:15;32.80;58.30
10468;DHT22;5281;48.878;9.394;2023-06-26T13:44:41;32.70;57.30
10468;DHT22;5281;48.878;9.394;2023-06-26T13:47:12;32.70;57.10
10468;DHT22;5281;48.878;9.394;2023-06-26T13:49:39;32.80;56.50
10468;DHT22;5281;48.878;9.394;2023-06-26T13:52:06;32.90;55.70
10468;DHT22;5281;48.878;9.394;2023-06-26T13:54:34;32.90;55.40
10468;DHT22;5281;48.878;9.394;2023-06-26T13:57:02;32.90;54.90
10468;DHT22;5281;48.878;9.394;2023-06-26T13:59:30;33.00;54.20
10468;DHT22;5281;48.878;9.394;2023-06-26T14:01:57;33.00;54.10
10468;DHT22;5281;48.878;9.394;2023-06-26T14:04:24;33.00;54.20
10468;DHT22;5281;48.878;9.394;2023-06-26T14:06:51;33.10;53.40
10468;DHT22;5281;48.878;9.394;2023-06-26T14:09:17;33.00;53.10
10468;DHT22;5281;48.878;9.394;2023-06-26T14:11:44;32.90;53.00
10468;DHT22;5281;48.878;9.394;2023-06-26T14:14:12;32.80;53.80
10468;DHT22;5281;48.878;9.394;2023-06-26T14:16:39;32.70;53.40
10468;DHT22;5281;48.878;9.394;2023-06-26T14:19:06;32.70;53.10
10468;DHT22;5281;48.878;9.394;2023-06-26T14:21:33;32.60;52.80
10468;DHT22;5281;48.878;9.394;2023-06-26T14:24:00;32.40;53.10
10468;DHT22;5281;48.878;9.394;2023-06-26T14:26:27;32.50;53.40
10468;DHT22;5281;48.878;9.394;2023-06-26T14:28:55;32.50;53.00
10468;DHT22;5281;48.878;9.394;2023-06-26T14:31:23;32.60;52.80
10468;DHT22;5281;48.878;9.394;2023-06-26T14:33:50;32.50;52.30
10468;DHT22;5281;48.878;9.394;2023-06-26T14:36:17;32.60;52.60
10468;DHT22;5281;48.878;9.394;2023-06-26T14:38:44;32.60;52.80
10468;DHT22;5281;48.878;9.394;2023-06-26T14:41:11;32.70;52.70
10468;DHT22;5281;48.878;9.394;2023-06-26T14:43:38;32.80;52.50
10468;DHT22;5281;48.878;9.394;2023-06-26T14:46:05;32.70;52.50
10468;DHT22;5281;48.878;9.394;2023-06-26T14:48:33;32.70;52.70
10468;DHT22;5281;48.878;9.394;2023-06-26T14:51:00;32.70;52.50
10468;DHT22;5281;48.878;9.394;2023-06-26T14:53:27;32.70;51.70
10468;DHT22;5281;48.878;9.394;2023-06-26T14:55:53;32.50;52.00
10468;DHT22;5281;48.878;9.394;2023-06-26T14:58:22;32.20;52.40
10468;DHT22;5281;48.878;9.394;2023-06-26T15:00:49;32.30;52.70
10468;DHT22;5281;48.878;9.394;2023-06-26T15:03:15;32.00;53.20
10468;DHT22;5281;48.878;9.394;2023-06-26T15:05:43;32.00;53.30
10468;DHT22;5281;48.878;9.394;2023-06-26T15:08:10;31.90;53.20
10468;DHT22;5281;48.878;9.394;2023-06-26T15:10:37;31.90;52.70
10468;DHT22;5281;48.878;9.394;2023-06-26T15:13:04;31.90;53.00
10468;DHT22;5281;48.878;9.394;2023-06-26T15:15:30;31.80;52.80
10468;DHT22;5281;48.878;9.394;2023-06-26T15:17:57;31.80;53.60
10468;DHT22;5281;48.878;9.394;2023-06-26T15:20:25;31.90;54.00
10468;DHT22;5281;48.878;9.394;2023-06-26T15:22:53;31.90;53.70
10468;DHT22;5281;48.878;9.394;2023-06-26T15:25:20;31.80;54.10
10468;DHT22;5281;48.878;9.394;2023-06-26T15:27:47;31.70;53.80
10468;DHT22;5281;48.878;9.394;2023-06-26T15:30:15;31.60;54.60
10468;DHT22;5281;48.878;9.394;2023-06-26T15:32:42;31.60;54.40
10468;DHT22;5281;48.878;9.394;2023-06-26T15:35:08;31.70;54.20
10468;DHT22;5281;48.878;9.394;2023-06-26T15:37:35;31.80;54.30
10468;DHT22;5281;48.878;9.394;2023-06-26T15:40:06;31.90;54.80
10468;DHT22;5281;48.878;9.394;2023-06-26T15:42:33;31.90;54.20
10468;DHT22;5281;48.878;9.394;2023-06-26T15:45:10;31.90;54.00
10468;DHT22;5281;48.878;9.394;2023-06-26T15:47:37;31.70;54.30